Time;durP1;ratioP1;P1;durP2;ratioP2;P2;SDS_P1;SDS_P2;PMS_P1;PMS_P2;Temp;Humidity;BMP_temperature;BMP_pressure;BME280_temperature;BME280_humidity;BME280_pressure;Samples;Min_cycle;Max_cycle;Signal;HPM_P1;HPM_P2
2023/11/25 00:00:10;;;;;;;;;0.00;0.00;;;;;6.33;100.00;101715.00;5017815;28;45347;-84
2023/11/25 00:02:36;;;;;;;;;0.00;0.00;;;;;6.31;100.00;101721.00;5016207;28;45556;-84
2023/11/25 00:05:01;;;;;;;;;22.00;22.00;;;;;6.30;100.00;101716.72;4983637;28;45363;-84
2023/11/25 00:07:28;;;;;;;;;0.00;0.00;;;;;6.26;100.00;101709.78;4983829;28;45396;-84
2023/11/25 00:09:53;;;;;;;;;0.00;0.00;;;;;6.18;100.00;101702.88;5018379;28;45312;-83
2023/11/25 00:12:19;;;;;;;;;12.00;12.00;;;;;6.16;100.00;101704.56;4999629;28;47038;-83
2023/11/25 00:14:44;;;;;;;;;0.00;0.00;;;;;6.14;100.00;101713.16;4983474;28;45428;-84
2023/11/25 00:17:10;;;;;;;;;0.00;0.00;;;;;6.15;100.00;101709.75;5016615;28;62927;-83
2023/11/25 00:19:35;;;;;;;;;0.00;0.00;;;;;6.14;100.00;101695.94;4999055;28;61861;-84
2023/11/25 00:22:01;;;;;;;;;0.00;0.00;;;;;6.13;100.00;101701.09;5017647;28;45980;-84
2023/11/25 00:24:26;;;;;;;;;0.00;0.00;;;;;6.11;100.00;101706.28;5017507;28;45405;-84
2023/11/25 00:26:51;;;;;;;;;0.00;0.00;;;;;6.10;100.00;101696.78;4983558;28;45353;-84
2023/11/25 00:29:17;;;;;;;;;0.00;0.00;;;;;6.07;100.00;101698.47;4983135;28;45402;-83
2023/11/25 00:31:47;;;;;;;;;0.00;0.00;;;;;6.04;100.00;101695.91;5016687;28;46293;-84
2023/11/25 00:34:12;;;;;;;;;0.00;0.00;;;;;6.06;100.00;101704.53;4983258;28;45889;-84
2023/11/25 00:36:38;;;;;;;;;0.00;0.00;;;;;6.04;100.00;101699.34;4985416;28;49968;-83
2023/11/25 00:39:06;;;;;;;;;0.00;0.00;;;;;6.02;100.00;101698.47;5001791;28;72130;-84
2023/11/25 00:41:33;;;;;;;;;0.00;0.00;;;;;5.99;100.00;101709.63;5019466;28;45383;-84
2023/11/25 00:43:59;;;;;;;;;0.00;0.00;;;;;5.97;100.00;101702.75;5003136;28;45430;-84
2023/11/25 00:46:24;;;;;;;;;0.00;0.00;;;;;5.96;100.00;101696.72;5001302;28;66009;-84
2023/11/25 00:48:52;;;;;;;;;0.00;0.00;;;;;5.96;100.00;101699.31;5036918;28;47280;-84
2023/11/25 00:51:17;;;;;;;;;0.00;0.00;;;;;5.91;100.00;101694.94;5036107;28;45516;-84
2023/11/25 00:53:43;;;;;;;;;0.00;0.00;;;;;5.88;100.00;101693.19;5019176;28;45241;-84
2023/11/25 00:56:08;;;;;;;;;0.00;0.00;;;;;5.91;100.00;101693.22;5018990;28;45265;-84
2023/11/25 00:58:34;;;;;;;;;0.00;0.00;;;;;5.89;100.00;101697.50;5002105;28;58859;-84
2023/11/25 01:00:59;;;;;;;;;0.00;0.00;;;;;5.89;100.00;101696.63;5017824;28;64986;-84
2023/11/25 01:03:24;;;;;;;;;0.00;0.00;;;;;5.86;100.00;101696.63;5001518;28;70076;-84
2023/11/25 01:05:50;;;;;;;;;0.00;0.00;;;;;5.81;100.00;101694.00;5036711;28;45287;-84
2023/11/25 01:08:15;;;;;;;;;0.00;0.00;;;;;5.80;100.00;101694.88;5019028;28;45362;-84
2023/11/25 01:10:41;;;;;;;;;0.00;0.00;;;;;5.82;100.00;101706.94;5035702;28;71061;-84
2023/11/25 01:13:06;;;;;;;;;0.00;0.00;;;;;5.85;100.00;101703.50;5018822;28;45457;-84
2023/11/25 01:15:32;;;;;;;;;0.00;0.00;;;;;5.84;100.00;101706.94;5018485;28;45445;-84
2023/11/25 01:17:57;;;;;;;;;0.00;0.00;;;;;5.85;100.00;101708.69;5002175;28;45345;-84
2023/11/25 01:20:23;;;;;;;;;0.00;0.00;;;;;5.84;100.00;101708.66;5018389;28;46972;-84
2023/11/25 01:22:49;;;;;;;;;0.00;0.00;;;;;5.82;100.00;101701.75;5018632;28;45594;-84
2023/11/25 01:25:15;;;;;;;;;0.00;0.00;;;;;5.83;100.00;101707.78;5019331;28;45311;-83
2023/11/25 01:27:42;;;;;;;;;0.00;0.00;;;;;5.85;100.00;101712.97;5018417;28;45533;-84
2023/11/25 01:30:08;;;;;;;;;0.00;0.00;;;;;5.82;100.00;101716.41;5035784;28;46953;-84
2023/11/25 01:32:34;;;;;;;;;0.00;0.00;;;;;5.82;100.00;101708.66;5018534;28;45359;-83
2023/11/25 01:34:59;;;;;;;;;0.00;0.00;;;;;5.82;100.00;101711.25;5018530;28;45446;-84
2023/11/25 01:37:27;;;;;;;;;0.00;0.00;;;;;5.78;100.00;101707.78;5018653;28;45343;-83
2023/11/25 01:39:53;;;;;;;;;0.00;0.00;;;;;5.80;100.00;101708.63;5035219;28;46904;-82
2023/11/25 01:42:18;;;;;;;;;0.00;0.00;;;;;5.77;100.00;101718.94;5035009;28;45489;-84
2023/11/25 01:44:44;;;;;;;;;0.00;0.00;;;;;5.80;100.00;101718.97;5001694;28;45576;-85
2023/11/25 01:47:09;;;;;;;;;0.00;0.00;;;;;5.79;100.00;101716.38;5015123;28;45328;-83
2023/11/25 01:49:35;;;;;;;;;0.00;0.00;;;;;5.75;100.00;101715.50;5018329;28;48378;-83
2023/11/25 01:52:01;;;;;;;;;6.00;6.00;;;;;5.76;100.00;101721.53;5035202;28;68537;-83
2023/11/25 01:54:27;;;;;;;;;0.00;0.00;;;;;5.73;100.00;101711.19;5017377;28;66933;-82
2023/11/25 01:56:58;;;;;;;;;0.00;0.00;;;;;5.71;100.00;101715.47;5017819;28;63429;-83
2023/11/25 01:59:25;;;;;;;;;0.00;0.00;;;;;5.67;100.00;101719.75;5016900;28;46346;-83
2023/11/25 02:01:51;;;;;;;;;0.00;0.00;;;;;5.63;100.00;101718.88;5018263;28;45553;-83
2023/11/25 02:04:17;;;;;;;;;0.00;0.00;;;;;5.63;100.00;101718.88;5020845;28;61127;-82
2023/11/25 02:06:42;;;;;;;;;0.00;0.00;;;;;5.55;100.00;101717.06;5021461;28;62756;-83
2023/11/25 02:09:08;;;;;;;;;0.00;0.00;;;;;5.55;100.00;101714.50;5021320;28;47590;-82
2023/11/25 02:11:53;;;;;;;;;0.00;0.00;;;;;5.58;100.00;101717.97;5021559;28;45710;-83
2023/11/25 02:14:19;;;;;;;;;0.00;0.00;;;;;5.55;100.00;101723.13;5038624;28;45589;-83
2023/11/25 02:16:45;;;;;;;;;0.00;0.00;;;;;5.55;100.00;101719.66;5020245;28;71279;-83
2023/11/25 02:19:12;;;;;;;;;0.00;0.00;;;;;5.53;100.00;101716.19;5004501;28;46499;-83
2023/11/25 02:21:40;;;;;;;;;0.00;0.00;;;;;5.52;100.00;101705.00;5039104;28;45355;-83
2023/11/25 02:24:07;;;;;;;;;0.00;0.00;;;;;5.53;100.00;101713.63;5021174;28;45346;-83
2023/11/25 02:26:32;;;;;;;;;7.00;7.00;;;;;5.50;100.00;101709.31;5039160;28;45284;-83
2023/11/25 02:28:58;;;;;;;;;0.00;0.00;;;;;5.51;100.00;101703.25;5038350;28;47305;-82
2023/11/25 02:31:23;;;;;;;;;0.00;0.00;;;;;5.54;100.00;101707.59;5039229;28;45291;-83
2023/11/25 02:33:48;;;;;;;;;0.00;0.00;;;;;5.51;100.00;101702.41;5020330;28;67504;-82
2023/11/25 02:36:14;;;;;;;;;0.00;0.00;;;;;5.48;100.00;101703.25;5003326;28;71977;-83
2023/11/25 02:38:39;;;;;;;;;0.00;0.00;;;;;5.47;100.00;101701.53;5004104;28;47137;-83
2023/11/25 02:41:05;;;;;;;;;0.00;0.00;;;;;5.51;100.00;101705.00;5038458;28;45288;-83
2023/11/25 02:43:31;;;;;;;;;0.00;0.00;;;;;5.49;100.00;101707.56;5020737;28;45617;-83
2023/11/25 02:45:56;;;;;;;;;0.00;0.00;;;;;5.53;100.00;101696.38;5018541;28;45313;-84
2023/11/25 02:48:23;;;;;;;;;0.00;0.00;;;;;5.53;100.00;101700.69;5020511;28;47296;-83
2023/11/25 02:50:48;;;;;;;;;0.00;0.00;;;;;5.53;100.00;101705.88;5000477;28;45840;-82
2023/11/25 02:53:13;;;;;;;;;0.00;0.00;;;;;5.52;100.00;101702.44;5000054;28;70971;-83
2023/11/25 02:55:39;;;;;;;;;0.00;0.00;;;;;5.42;100.00;101706.66;5017515;28;45438;-83
2023/11/25 02:58:05;;;;;;;;;0.00;0.00;;;;;5.42;100.00;101706.66;5000926;28;46164;-83
2023/11/25 03:00:33;;;;;;;;;0.00;0.00;;;;;5.41;100.00;101719.56;5000918;28;45530;-84
2023/11/25 03:03:07;;;;;;;;;0.00;0.00;;;;;5.39;100.00;101701.47;5018701;28;45378;-84
2023/11/25 03:05:37;;;;;;;;;0.00;0.00;;;;;5.36;100.00;101705.75;5018722;28;45391;-83
2023/11/25 03:08:02;;;;;;;;;0.00;0.00;;;;;5.54;100.00;101699.84;4984228;28;47602;-83
2023/11/25 03:10:28;;;;;;;;;0.00;0.00;;;;;5.48;100.00;101707.53;5018412;28;45279;-83
2023/11/25 03:12:53;;;;;;;;;0.00;0.00;;;;;5.44;100.00;101696.31;5000256;28;45525;-82
2023/11/25 03:15:19;;;;;;;;;0.00;0.00;;;;;5.45;100.00;101703.22;5017910;28;66777;-83
2023/11/25 03:17:44;;;;;;;;;0.00;0.00;;;;;5.36;100.00;101696.25;5017761;28;55582;-82
2023/11/25 03:20:10;;;;;;;;;0.00;0.00;;;;;5.34;100.00;101699.69;5000644;28;49715;-83
2023/11/25 03:22:35;;;;;;;;;0.00;0.00;;;;;5.30;100.00;101696.22;5018340;28;45547;-83
2023/11/25 03:25:01;;;;;;;;;0.00;0.00;;;;;5.30;100.00;101692.78;4983551;28;67245;-83
2023/11/25 03:27:28;;;;;;;;;0.00;0.00;;;;;5.29;100.00;101694.47;4999529;28;47573;-82
2023/11/25 03:29:54;;;;;;;;;0.00;0.00;;;;;5.25;100.00;101697.91;4984264;28;45298;-84
2023/11/25 03:32:19;;;;;;;;;0.00;0.00;;;;;5.26;100.00;101709.13;5018193;28;45344;-83
2023/11/25 03:34:45;;;;;;;;;0.00;0.00;;;;;5.33;100.00;101711.75;4983953;28;45463;-83
2023/11/25 03:37:10;;;;;;;;;0.00;0.00;;;;;5.24;100.00;101709.09;5017903;28;45796;-83
2023/11/25 03:39:36;;;;;;;;;0.00;0.00;;;;;5.19;100.00;101703.88;5005312;28;66258;-83
2023/11/25 03:42:04;;;;;;;;;0.00;0.00;;;;;5.19;100.00;101703.00;4999768;28;45320;-83
2023/11/25 03:44:29;;;;;;;;;0.00;0.00;;;;;5.16;100.00;101700.41;5017939;28;45438;-83
2023/11/25 03:46:54;;;;;;;;;0.00;0.00;;;;;5.13;100.00;101703.84;5029222;28;46258;-83
2023/11/25 03:49:20;;;;;;;;;0.00;0.00;;;;;5.13;100.00;101706.41;5037780;28;45331;-83
2023/11/25 03:51:46;;;;;;;;;0.00;0.00;;;;;5.14;100.00;101702.09;5019747;28;45390;-83
2023/11/25 03:54:11;;;;;;;;;0.00;0.00;;;;;5.11;100.00;101710.69;5019291;28;45375;-82
2023/11/25 03:56:36;;;;;;;;;0.00;0.00;;;;;5.09;100.00;101707.25;5019675;28;46307;-83
2023/11/25 03:59:02;;;;;;;;;0.00;0.00;;;;;5.12;100.00;101711.56;5003007;28;45261;-82
2023/11/25 04:01:27;;;;;;;;;0.00;0.00;;;;;5.19;100.00;101705.59;5002058;28;70077;-83
2023/11/25 04:03:52;;;;;;;;;0.00;0.00;;;;;5.11;100.00;101714.97;5037067;28;52686;-82
2023/11/25 04:06:18;;;;;;;;;0.00;0.00;;;;;5.13;100.00;101709.00;5019156;28;49369;-82
2023/11/25 04:08:43;;;;;;;;;0.00;0.00;;;;;5.10;100.00;101710.69;5036142;28;72149;-83
2023/11/25 04:11:09;;;;;;;;;0.00;0.00;;;;;5.04;100.00;101716.66;5018584;28;69237;-82
2023/11/25 04:13:34;;;;;;;;;0.00;0.00;;;;;5.05;100.00;101718.34;5019501;28;45428;-82
2023/11/25 04:16:00;;;;;;;;;0.00;0.00;;;;;5.04;100.00;101717.50;5019070;28;50082;-83
2023/11/25 04:18:26;;;;;;;;;0.00;0.00;;;;;4.98;100.00;101711.44;5035789;28;73091;-83
2023/11/25 04:20:51;;;;;;;;;0.00;0.00;;;;;4.96;100.00;101711.41;5002601;28;45452;-83
2023/11/25 04:23:18;;;;;;;;;0.00;0.00;;;;;4.91;100.00;101704.47;5036721;28;45436;-83
2023/11/25 04:25:43;;;;;;;;;0.00;0.00;;;;;4.89;100.00;101708.75;5018488;28;46279;-83
2023/11/25 04:28:11;;;;;;;;;0.00;0.00;;;;;4.86;100.00;101704.41;5036937;28;45476;-82
2023/11/25 04:30:38;;;;;;;;;0.00;0.00;;;;;4.82;100.00;101706.09;5019417;28;45435;-83
2023/11/25 04:33:03;;;;;;;;;0.00;0.00;;;;;4.77;100.00;101705.22;5037062;28;45377;-82
2023/11/25 04:35:28;;;;;;;;;0.00;0.00;;;;;4.77;100.00;101710.38;5018379;28;52345;-82
2023/11/25 04:37:53;;;;;;;;;0.00;0.00;;;;;4.72;100.00;101706.88;5017615;28;72708;-83
2023/11/25 04:40:19;;;;;;;;;0.33;0.33;;;;;4.73;100.00;101710.31;5015072;28;56964;-83
2023/11/25 04:42:44;;;;;;;;;0.00;0.00;;;;;4.74;100.00;101706.88;4998870;28;45613;-83
2023/11/25 04:45:18;;;;;;;;;0.00;0.00;;;;;4.73;100.00;101713.75;5013409;28;45484;-83
2023/11/25 04:47:44;;;;;;;;;0.00;0.00;;;;;4.77;100.00;101717.22;5037151;28;45165;-83
2023/11/25 04:50:11;;;;;;;;;0.00;0.00;;;;;4.78;100.00;101714.66;5018707;28;45296;-82
2023/11/25 04:52:37;;;;;;;;;0.00;0.00;;;;;4.82;100.00;101715.56;5036272;28;45328;-83
2023/11/25 04:55:03;;;;;;;;;0.00;0.00;;;;;4.80;100.00;101714.69;5018281;28;60126;-83
2023/11/25 04:57:28;;;;;;;;;0.00;0.00;;;;;4.82;100.00;101718.16;5018886;28;45466;-82
2023/11/25 04:59:54;;;;;;;;;0.00;0.00;;;;;4.80;100.00;101707.81;5018879;28;45518;-83
2023/11/25 05:02:20;;;;;;;;;0.00;0.00;;;;;4.82;100.00;101711.25;5017708;28;58564;-81
2023/11/25 05:04:45;;;;;;;;;0.00;0.00;;;;;4.87;100.00;101721.63;5002001;28;48178;-82
2023/11/25 05:07:11;;;;;;;;;0.00;0.00;;;;;4.84;100.00;101713.88;5036292;28;45374;-82
2023/11/25 05:09:38;;;;;;;;;0.00;0.00;;;;;4.88;100.00;101725.94;5035817;28;61513;-82
2023/11/25 05:12:05;;;;;;;;;0.00;0.00;;;;;4.87;100.00;101718.19;5018668;28;45539;-82
2023/11/25 05:14:31;;;;;;;;;0.00;0.00;;;;;4.88;100.00;101722.50;5018638;28;45625;-82
2023/11/25 05:16:57;;;;;;;;;0.00;0.00;;;;;4.87;100.00;101720.75;5018151;28;45412;-82
2023/11/25 05:19:22;;;;;;;;;0.00;0.00;;;;;4.85;100.00;101718.19;5036377;28;45319;-83
2023/11/25 05:21:47;;;;;;;;;0.00;0.00;;;;;4.83;100.00;101719.88;5035589;28;45263;-82
2023/11/25 05:24:13;;;;;;;;;0.00;0.00;;;;;4.82;100.00;101724.16;5000544;28;75514;-81
2023/11/25 05:26:38;;;;;;;;;0.00;0.00;;;;;4.81;100.00;101716.41;5018142;28;45320;-82
2023/11/25 05:29:05;;;;;;;;;0.00;0.00;;;;;4.80;100.00;101720.69;4997094;28;70611;-82
2023/11/25 05:31:33;;;;;;;;;0.00;0.00;;;;;4.77;100.00;101719.81;4998650;28;45534;-82
2023/11/25 05:33:58;;;;;;;;;0.00;0.00;;;;;4.74;100.00;101723.22;5011300;28;45426;-82
2023/11/25 05:36:24;;;;;;;;;0.00;0.00;;;;;4.73;100.00;101726.63;5035784;28;45348;-82
2023/11/25 05:38:49;;;;;;;;;0.00;0.00;;;;;4.69;100.00;101724.88;5016721;28;71460;-82
2023/11/25 05:41:15;;;;;;;;;0.00;0.00;;;;;4.67;100.00;101720.56;5036486;28;45272;-81
2023/11/25 05:43:40;;;;;;;;;0.00;0.00;;;;;4.67;100.00;101720.56;5035538;28;47180;-82
2023/11/25 05:46:06;;;;;;;;;0.00;0.00;;;;;4.68;100.00;101724.84;5015166;28;45545;-83
2023/11/25 05:48:32;;;;;;;;;0.00;0.00;;;;;4.65;100.00;101731.72;5011974;28;45531;-82
2023/11/25 05:50:57;;;;;;;;;0.00;0.00;;;;;4.63;100.00;101727.41;5017701;28;45533;-82
2023/11/25 05:53:23;;;;;;;;;0.00;0.00;;;;;4.62;100.00;101726.53;5014219;28;46341;-80
2023/11/25 05:55:48;;;;;;;;;0.00;0.00;;;;;4.65;100.00;101728.28;4998376;28;45498;-82
2023/11/25 05:58:14;;;;;;;;;0.00;0.00;;;;;4.65;100.00;101728.28;4991506;28;45353;-82
2023/11/25 06:00:39;;;;;;;;;0.00;0.00;;;;;4.63;100.00;101724.81;4998247;28;45402;-82
2023/11/25 06:03:05;;;;;;;;;0.00;0.00;;;;;4.64;100.00;101736.84;4999741;28;46797;-82
2023/11/25 06:05:30;;;;;;;;;0.00;0.00;;;;;4.62;100.00;101730.81;5035503;28;45449;-82
2023/11/25 06:07:55;;;;;;;;;0.00;0.00;;;;;4.57;100.00;101723.03;5034898;28;69351;-82
2023/11/25 06:10:22;;;;;;;;;0.00;0.00;;;;;4.58;100.00;101736.78;5035645;28;45378;-82
2023/11/25 06:12:48;;;;;;;;;0.00;0.00;;;;;4.52;100.00;101735.00;5035233;28;45586;-82
2023/11/25 06:15:14;;;;;;;;;0.00;0.00;;;;;4.50;100.00;101731.53;5017637;28;45988;-83
2023/11/25 06:17:40;;;;;;;;;0.00;0.00;;;;;4.47;100.00;101729.78;5018366;28;45323;-83
2023/11/25 06:20:06;;;;;;;;;0.00;0.00;;;;;4.47;100.00;101731.50;5035144;28;45292;-83
2023/11/25 06:22:31;;;;;;;;;0.00;0.00;;;;;4.47;100.00;101732.34;5017366;28;46104;-82
2023/11/25 06:25:00;;;;;;;;;0.00;0.00;;;;;4.44;100.00;101732.34;5013939;28;45478;-82
2023/11/25 06:27:25;;;;;;;;;0.00;0.00;;;;;4.40;100.00;101730.56;5015720;28;45321;-82
2023/11/25 06:29:51;;;;;;;;;0.00;0.00;;;;;4.41;100.00;101734.88;5030067;28;45442;-82
2023/11/25 06:32:17;;;;;;;;;0.00;0.00;;;;;4.39;100.00;101738.28;5016471;28;66334;-82
2023/11/25 06:34:42;;;;;;;;;0.00;0.00;;;;;4.39;100.00;101741.72;5034698;28;45217;-83
2023/11/25 06:37:08;;;;;;;;;0.50;0.50;;;;;4.39;100.00;101741.72;5017426;28;45289;-82
2023/11/25 06:39:33;;;;;;;;;0.00;0.00;;;;;4.40;100.00;101746.03;5017312;28;45305;-82
2023/11/25 06:42:00;;;;;;;;;0.00;0.00;;;;;4.40;100.00;101738.31;5035053;28;46506;-81
2023/11/25 06:44:25;;;;;;;;;0.00;0.00;;;;;4.40;100.00;101742.56;5016853;28;45486;-82
2023/11/25 06:46:51;;;;;;;;;0.00;0.00;;;;;4.41;100.00;101742.59;5035247;28;45761;-82
2023/11/25 06:49:16;;;;;;;;;0.00;0.00;;;;;4.41;100.00;101740.03;5036215;28;55776;-83
2023/11/25 06:51:42;;;;;;;;;0.00;0.00;;;;;4.43;100.00;101745.19;5037517;28;66744;-83
2023/11/25 06:54:11;;;;;;;;;0.00;0.00;;;;;4.45;100.00;101749.53;5038525;28;45573;-83
2023/11/25 06:56:38;;;;;;;;;0.00;0.00;;;;;4.50;100.00;101749.59;5038724;28;45322;-83
2023/11/25 06:59:05;;;;;;;;;0.00;0.00;;;;;4.50;100.00;101752.16;5017197;28;45637;-82
2023/11/25 07:01:31;;;;;;;;;0.00;0.00;;;;;4.52;100.00;101744.47;5001457;28;45536;-83
2023/11/25 07:03:56;;;;;;;;;0.00;0.00;;;;;4.51;100.00;101764.19;5019898;28;45328;-82
2023/11/25 07:06:23;;;;;;;;;0.00;0.00;;;;;4.50;100.00;101754.75;5038277;28;45382;-83
2023/11/25 07:08:48;;;;;;;;;0.00;0.00;;;;;4.49;100.00;101750.44;5020719;28;45500;-82
2023/11/25 07:11:14;;;;;;;;;0.00;0.00;;;;;4.51;100.00;101742.72;5019603;28;63583;-83
2023/11/25 07:13:42;;;;;;;;;0.00;0.00;;;;;4.53;100.00;101746.19;5020015;28;45499;-83
2023/11/25 07:16:08;;;;;;;;;0.00;0.00;;;;;4.53;100.00;101741.91;5019647;28;59353;-83
2023/11/25 07:18:34;;;;;;;;;0.00;0.00;;;;;4.54;100.00;101740.19;5037953;28;45474;-80
2023/11/25 07:21:00;;;;;;;;;0.00;0.00;;;;;4.56;100.00;101746.22;5020032;28;47092;-83
2023/11/25 07:23:26;;;;;;;;;0.00;0.00;;;;;4.57;100.00;101742.78;5019859;28;45451;-83
2023/11/25 07:25:51;;;;;;;;;0.00;0.00;;;;;4.64;100.00;101740.31;5038313;28;45185;-83
2023/11/25 07:28:16;;;;;;;;;0.00;0.00;;;;;4.61;100.00;101745.44;5020254;28;45461;-83
2023/11/25 07:30:42;;;;;;;;;0.00;0.00;;;;;4.59;100.00;101738.53;5014828;28;75614;-83
2023/11/25 07:33:08;;;;;;;;;0.50;0.50;;;;;4.65;100.00;101743.75;5019270;28;45453;-83
2023/11/25 07:35:34;;;;;;;;;0.00;0.00;;;;;4.65;100.00;101748.91;5038576;28;45429;-83
2023/11/25 07:38:00;;;;;;;;;0.00;0.00;;;;;4.65;100.00;101747.19;5020173;28;45422;-83
2023/11/25 07:40:26;;;;;;;;;0.00;0.00;;;;;4.70;100.00;101756.69;5016747;28;45532;-83
2023/11/25 07:42:51;;;;;;;;;0.00;0.00;;;;;4.70;100.00;101761.84;5000053;28;45466;-83
2023/11/25 07:45:17;;;;;;;;;0.00;0.00;;;;;4.70;100.00;101757.56;5020448;28;45473;-83
2023/11/25 07:47:45;;;;;;;;;0.00;0.00;;;;;4.68;100.00;101763.53;5002251;28;45598;-84
2023/11/25 07:50:11;;;;;;;;;0.00;0.00;;;;;4.73;100.00;101764.47;5003293;28;46347;-82
2023/11/25 07:52:37;;;;;;;;;0.00;0.00;;;;;4.71;100.00;101764.44;5015997;28;45434;-83
2023/11/25 07:55:06;;;;;;;;;0.00;0.00;;;;;4.85;100.00;101764.63;5033285;28;45457;-82
2023/11/25 07:57:32;;;;;;;;;0.00;0.00;;;;;4.89;100.00;101763.81;5037687;28;45437;-83
2023/11/25 07:59:57;;;;;;;;;0.00;0.00;;;;;4.90;100.00;101756.91;5015667;28;45531;-83
2023/11/25 08:02:23;;;;;;;;;0.00;0.00;;;;;4.95;100.00;101766.44;5034983;28;58387;-83
2023/11/25 08:04:48;;;;;;;;;0.00;0.00;;;;;4.97;100.00;101754.41;5019416;28;45265;-83
2023/11/25 08:07:14;;;;;;;;;0.00;0.00;;;;;5.05;100.00;101754.50;5019926;28;45564;-82
2023/11/25 08:09:40;;;;;;;;;0.00;0.00;;;;;5.04;100.00;101760.53;5019522;28;46117;-83
2023/11/25 08:12:06;;;;;;;;;0.00;0.00;;;;;5.02;100.00;101764.81;5019579;28;45497;-83
2023/11/25 08:14:31;;;;;;;;;0.00;0.00;;;;;5.08;100.00;101759.69;5037246;28;45653;-82
2023/11/25 08:16:57;;;;;;;;;0.00;0.00;;;;;5.12;100.00;101755.44;5034905;28;69792;-84
2023/11/25 08:19:22;;;;;;;;;0.00;0.00;;;;;5.15;100.00;101766.66;5002234;28;54634;-85
2023/11/25 08:24:34;;;;;;;;;0.00;0.00;;;;;5.24;100.00;101766.75;5017676;28;45312;-84
2023/11/25 08:26:59;;;;;;;;;0.00;0.00;;;;;5.29;100.00;101758.16;5002270;28;45622;-84
2023/11/25 08:29:25;;;;;;;;;0.00;0.00;;;;;5.30;100.00;101755.59;5000998;28;74225;-81
2023/11/25 08:31:50;;;;;;;;;0.00;0.00;;;;;5.34;100.00;101757.34;5035461;28;73019;-84
2023/11/25 08:34:16;;;;;;;;;0.00;0.00;;;;;5.35;100.00;101753.94;5019135;28;45533;-85
2023/11/25 08:36:44;;;;;;;;;0.00;0.00;;;;;5.36;100.00;101760.81;5036883;28;45670;-83
2023/11/25 08:39:13;;;;;;;;;0.00;0.00;;;;;5.40;100.00;101751.38;5019072;28;47298;-84
2023/11/25 08:41:40;;;;;;;;;0.00;0.00;;;;;5.49;100.00;101748.88;5036152;28;45530;-86
2023/11/25 08:44:14;;;;;;;;;0.00;0.00;;;;;5.59;100.00;101755.88;5017051;28;45490;-88
2023/11/25 08:46:42;;;;;;;;;0.00;0.00;;;;;5.62;100.00;101747.25;4993764;28;45480;-85
2023/11/25 08:49:21;;;;;;;;;0.00;0.00;;;;;5.71;100.00;101749.91;4999757;28;46216;-85
2023/11/25 08:51:49;;;;;;;;;0.00;0.00;;;;;5.73;100.00;101739.59;5017114;28;45345;-83
2023/11/25 08:54:18;;;;;;;;;0.00;0.00;;;;;5.75;100.00;101740.47;5008011;28;45412;-84
2023/11/25 08:56:48;;;;;;;;;0.00;0.00;;;;;5.82;100.00;101737.06;5052776;28;45447;-84
2023/11/25 08:59:18;;;;;;;;;0.00;0.00;;;;;5.92;100.00;101749.19;5039815;28;46677;-85
2023/11/25 09:02:26;;;;;;;;;0.00;0.00;;;;;5.96;100.00;101748.41;5039603;28;45258;-90
2023/11/25 09:04:54;;;;;;;;;0.00;0.00;;;;;6.06;100.00;101753.63;5007292;28;45295;-90
2023/11/25 09:07:23;;;;;;;;;0.00;0.00;;;;;6.13;100.00;101763.13;5016825;28;45503;-89
2023/11/25 09:09:52;;;;;;;;;0.00;0.00;;;;;6.15;100.00;101754.53;5017029;28;46926;-88
2023/11/25 09:12:17;;;;;;;;;0.00;0.00;;;;;6.25;100.00;101760.63;5013800;28;46049;-89
2023/11/25 09:14:46;;;;;;;;;0.00;0.00;;;;;6.28;100.00;101758.06;5002783;28;45466;-89
2023/11/25 09:17:19;;;;;;;;;0.00;0.00;;;;;6.37;100.00;101767.56;5019675;28;45569;-90
2023/11/25 09:19:47;;;;;;;;;0.00;0.00;;;;;6.51;100.00;101763.34;5020285;28;45487;-86
2023/11/25 09:22:13;;;;;;;;;0.00;0.00;;;;;6.76;100.00;101761.72;5024558;28;45355;-84
2023/11/25 09:24:40;;;;;;;;;0.00;0.00;;;;;6.97;100.00;101762.63;5036621;28;45272;-84
2023/11/25 09:27:05;;;;;;;;;0.00;0.00;;;;;7.12;100.00;101754.88;5036721;28;45343;-87
2023/11/25 09:29:30;;;;;;;;;0.00;0.00;;;;;7.17;100.00;101754.91;5017052;28;66525;-83
2023/11/25 09:31:55;;;;;;;;;0.00;0.00;;;;;7.23;100.00;101751.47;5035573;28;64392;-84
2023/11/25 09:34:21;;;;;;;;;0.00;0.00;;;;;7.23;100.00;101754.91;5017435;28;62152;-86
2023/11/25 09:36:49;;;;;;;;;0.00;0.00;;;;;7.28;100.00;101758.38;5018820;28;45466;-84
2023/11/25 09:39:14;;;;;;;;;0.00;0.00;;;;;7.27;100.00;101754.03;5017747;28;45441;-84
2023/11/25 09:41:43;;;;;;;;;0.00;0.00;;;;;7.30;100.00;101755.75;5017210;28;55404;-91
2023/11/25 09:44:14;;;;;;;;;0.00;0.00;;;;;7.31;100.00;101754.91;4999894;28;45416;-86
2023/11/25 09:47:12;;;;;;;;;0.00;0.00;;;;;7.34;100.00;101745.44;5019361;28;45367;-94
2023/11/25 09:49:38;;;;;;;;;0.00;0.00;;;;;7.39;100.00;101758.34;5012103;28;47060;-84
2023/11/25 09:52:13;;;;;;;;;0.00;0.00;;;;;7.40;100.00;101749.75;5000708;28;53986;-88
2023/11/25 09:54:39;;;;;;;;;0.00;0.00;;;;;7.42;100.00;101753.19;4999071;28;45311;-85
2023/11/25 09:57:06;;;;;;;;;0.00;0.00;;;;;7.49;100.00;101756.66;5043641;28;45509;-87
2023/11/25 09:59:31;;;;;;;;;0.00;0.00;;;;;7.53;100.00;101759.25;5018580;28;46247;-86
2023/11/25 10:02:03;;;;;;;;;0.00;0.00;;;;;7.57;100.00;101755.78;5001293;28;65416;-86
2023/11/25 10:04:33;;;;;;;;;0.00;0.00;;;;;7.66;100.00;101757.50;5017994;28;45198;-86
2023/11/25 10:07:00;;;;;;;;;0.00;0.00;;;;;7.71;100.00;101758.38;5001950;28;45477;-86
2023/11/25 10:09:26;;;;;;;;;0.00;0.00;;;;;7.77;100.00;101756.66;5034395;28;46998;-83
2023/11/25 10:11:53;;;;;;;;;0.00;0.00;;;;;7.87;100.00;101766.13;5018026;28;45313;-86
2023/11/25 10:14:18;;;;;;;;;0.00;0.00;;;;;7.90;100.00;101756.63;5004014;28;45336;-86
2023/11/25 10:16:50;;;;;;;;;0.00;0.00;;;;;8.00;100.00;101754.88;4989667;28;54179;-85
2023/11/25 10:19:20;;;;;;;;;0.00;0.00;;;;;8.06;100.00;101743.63;5016827;28;46697;-88
2023/11/25 10:21:47;;;;;;;;;0.00;0.00;;;;;8.12;100.00;101739.28;5036063;28;45362;-87
2023/11/25 10:24:13;;;;;;;;;1.00;1.00;;;;;8.23;100.00;101749.66;5038297;28;45352;-85
2023/11/25 10:26:43;;;;;;;;;0.00;0.00;;;;;8.32;100.00;101747.03;5039055;28;45555;-87
2023/11/25 10:29:09;;;;;;;;;0.00;0.00;;;;;8.43;100.00;101754.81;5021790;28;46086;-85
2023/11/25 10:31:35;;;;;;;;;0.00;0.00;;;;;8.53;100.00;101747.84;5021994;28;45400;-87
2023/11/25 10:34:01;;;;;;;;;0.00;0.00;;;;;8.66;100.00;101744.31;5039451;28;45298;-86
2023/11/25 10:36:49;;;;;;;;;0.00;0.00;;;;;8.80;100.00;101743.38;5001154;28;58351;-90
2023/11/25 10:39:18;;;;;;;;;0.00;0.00;;;;;8.97;100.00;101741.56;5002173;28;46514;-87
2023/11/25 10:41:51;;;;;;;;;0.00;0.00;;;;;9.19;100.00;101746.59;5001027;28;45952;-87
2023/11/25 10:44:20;;;;;;;;;0.00;0.00;;;;;9.38;100.00;101726.53;5004545;28;45289;-88
2023/11/25 10:46:47;;;;;;;;;0.00;0.00;;;;;9.64;100.00;101734.13;5003875;28;64294;-89
2023/11/25 10:49:13;;;;;;;;;0.00;0.00;;;;;10.46;100.00;101729.78;5038265;28;46622;-89
2023/11/25 10:51:43;;;;;;;;;0.00;0.00;;;;;10.81;100.00;101738.88;5020429;28;45329;-87
2023/11/25 10:54:09;;;;;;;;;0.00;0.00;;;;;11.11;100.00;101734.09;5017905;28;45525;-84
2023/11/25 10:56:42;;;;;;;;;0.00;0.00;;;;;11.58;100.00;101721.19;5036241;28;45373;-85
2023/11/25 10:59:15;;;;;;;;;0.00;0.00;;;;;13.93;100.00;101726.47;5037184;28;46459;-85
2023/11/25 11:01:43;;;;;;;;;0.00;0.00;;;;;15.87;100.00;101727.50;5018358;28;45415;-85
2023/11/25 11:04:31;;;;;;;;;0.00;0.00;;;;;16.85;100.00;101722.16;5017143;28;45343;-85
2023/11/25 11:07:03;;;;;;;;;0.00;0.00;;;;;17.53;100.00;101713.22;5009438;28;46072;-85
2023/11/25 11:09:35;;;;;;;;;0.00;0.00;;;;;17.98;100.00;101721.84;5036021;28;47223;-88
2023/11/25 11:12:33;;;;;;;;;0.00;0.00;;;;;18.07;94.53;101720.56;5012582;28;45379;-85
2023/11/25 11:15:10;;;;;;;;;0.00;0.00;;;;;18.93;100.00;101713.97;5029953;28;45559;-84
2023/11/25 11:17:56;;;;;;;;;0.00;0.00;;;;;18.72;86.70;101711.41;5014975;28;45514;-83
2023/11/25 11:20:27;;;;;;;;;0.00;0.00;;;;;18.54;96.37;101713.13;5018624;28;46621;-83
2023/11/25 11:22:52;;;;;;;;;0.00;0.00;;;;;18.31;91.24;101710.69;5039887;28;45260;-85
2023/11/25 11:25:46;;;;;;;;;0.00;0.00;;;;;19.10;96.78;101723.69;5023142;28;45422;-85